Quincy, IL

5:16 PM CDT on April 29, 2017 (GMT -0500)
KB9HGI - N 17th St. | | Change Station

Elev 614 ft 39.95 °N, 91.38 °W | Updated 0 second ago

Rain
Rain
43.4 °F
Feels Like 43 °F
N
0.0
Wind Variable Wind from NNE
Gusts 16.0 mph

Today
High -- | Low -- °F
--% Chance of Precip.
Yesterday
High -- | Low -- °F
Precip. -- in
Pressure 29.86 in
Visibility 4.0 miles
Clouds Overcast 800 ft
Windchill 43 °F
Dew Point 42 °F
Humidity 94%
Rainfall 1.53 in
Snow Depth Not available.
6:07 AM 7:58 PM
Waxing Crescent, 17% visible
METAR KUIN 292154Z AUTO 05021G29KT 4SM -RA BR OVC008 06/06 A2985 RMK AO2 PK WND 02030/2102 PRESFR SLP111 P0005 T00610056
Pressure 29.86 in
Visibility 4.0 miles
Clouds Overcast 800 ft
Windchill 43 °F
Dew Point 42 °F
Humidity 94%
Rainfall 1.53 in
Snow Depth Not available.
6:07 AM 7:58 PM
Waxing Crescent, 17% visible
METAR KUIN 292154Z AUTO 05021G29KT 4SM -RA BR OVC008 06/06 A2985 RMK AO2 PK WND 02030/2102 PRESFR SLP111 P0005 T00610056

Get Severe Weather Alerts

Thanks for signing up!

Be on the lookout for a verification email in your inbox.

You'll start receiving the daily forecast at 8 AM.

×

10-Day Weather Forecast

Almanac

Astronomy

Apr. 29, 2017 Rise Set
Actual Time
Civil Twilight
Nautical Twilight
Astronomical Twilight
Moon
Length of Visible Light
Length of Day
Tomorrow will be .
, % of the Moon is Illuminated

Today's Extremes

State Highs State Lows

Community

WunderPhotos

WunderBlog® & News

Nearby

Air Quality

  Air Quality AQ Index Pollutant
Not available.

Snow Depth

Station Depth Elevation

Earthquake Activity

City Distance Mag. Time & Date
Minimum magnitude displayed is 2.5.

Coastal Water Temperatures

Place Temperature

Stations

Nearby Weather Stations

Station Location Temp. Windchill Dew Point Humidity Wind Precip. Elev Updated Type
                   

Watches & Warnings

There are currently no watches in effect.